Terminal Aerodrome Forecast
Issued by NWS Sterling, VA

Current Version | Previous Version | Graphics & Text | Print | Product List | Glossary On
Versions: 1 2 3 4 5 6 7 8 9 10 11 12 13 14 15 16 17 18 19 20 21 22 23 24 25 26
000
FTUS41 KLWX 222110 AAD
TAFIAD
TAF AMD
KIAD 222110Z 2221/2324 03007KT 3SM -RA OVC008
     FM230300 07010KT 3SM -RA OVC008
     FM230600 07013G20KT 5SM RA BKN008 OVC015
     FM231100 06016G35KT 5SM RA BKN008 OVC015
     FM231500 07011G30KT 5SM -RA OVC008=

USA.gov is the U.S. government's official web portal to all federal, state and local government web resources and services.